sensor_id;sensor_type;location;lat;lon;timestamp;temperature;humidity
21744;DHT22;11034;48.556;9.342;2023-07-20T00:00:28;19.40;99.90
21744;DHT22;11034;48.556;9.342;2023-07-20T00:03:10;19.30;99.90
21744;DHT22;11034;48.556;9.342;2023-07-20T00:05:45;19.20;99.90
21744;DHT22;11034;48.556;9.342;2023-07-20T00:08:13;19.20;99.90
21744;DHT22;11034;48.556;9.342;2023-07-20T00:10:41;19.10;99.90
21744;DHT22;11034;48.556;9.342;2023-07-20T00:13:10;19.10;99.90
21744;DHT22;11034;48.556;9.342;2023-07-20T00:15:38;19.10;99.90
21744;DHT22;11034;48.556;9.342;2023-07-20T00:18:07;19.20;99.90
21744;DHT22;11034;48.556;9.342;2023-07-20T00:20:35;19.10;99.90
21744;DHT22;11034;48.556;9.342;2023-07-20T00:23:04;19.10;99.90
21744;DHT22;11034;48.556;9.342;2023-07-20T00:25:33;19.00;99.90
21744;DHT22;11034;48.556;9.342;2023-07-20T00:28:01;18.90;99.90
21744;DHT22;11034;48.556;9.342;2023-07-20T00:30:32;18.90;99.90
21744;DHT22;11034;48.556;9.342;2023-07-20T00:33:00;18.90;99.90
21744;DHT22;11034;48.556;9.342;2023-07-20T00:35:28;18.90;99.90
21744;DHT22;11034;48.556;9.342;2023-07-20T00:37:56;18.90;99.90
21744;DHT22;11034;48.556;9.342;2023-07-20T00:40:26;18.90;99.90
21744;DHT22;11034;48.556;9.342;2023-07-20T00:42:54;18.90;99.90
21744;DHT22;11034;48.556;9.342;2023-07-20T00:45:22;18.90;99.90
21744;DHT22;11034;48.556;9.342;2023-07-20T00:47:50;18.90;99.90
21744;DHT22;11034;48.556;9.342;2023-07-20T00:50:18;18.80;99.90
21744;DHT22;11034;48.556;9.342;2023-07-20T00:52:46;18.80;99.90
21744;DHT22;11034;48.556;9.342;2023-07-20T00:55:15;18.80;99.90
21744;DHT22;11034;48.556;9.342;2023-07-20T00:57:44;18.80;99.90
21744;DHT22;11034;48.556;9.342;2023-07-20T01:00:13;18.80;99.90
21744;DHT22;11034;48.556;9.342;2023-07-20T01:02:42;18.70;99.90
21744;DHT22;11034;48.556;9.342;2023-07-20T01:05:10;18.70;99.90
21744;DHT22;11034;48.556;9.342;2023-07-20T01:07:45;18.70;99.90
21744;DHT22;11034;48.556;9.342;2023-07-20T01:10:20;18.60;99.90
21744;DHT22;11034;48.556;9.342;2023-07-20T01:12:52;18.60;99.90
21744;DHT22;11034;48.556;9.342;2023-07-20T01:15:21;18.50;99.90
21744;DHT22;11034;48.556;9.342;2023-07-20T01:17:49;18.50;99.90
21744;DHT22;11034;48.556;9.342;2023-07-20T01:20:19;18.40;99.90
21744;DHT22;11034;48.556;9.342;2023-07-20T01:23:02;18.40;99.90
21744;DHT22;11034;48.556;9.342;2023-07-20T01:25:51;18.40;99.90
21744;DHT22;11034;48.556;9.342;2023-07-20T01:28:40;18.50;99.90
21744;DHT22;11034;48.556;9.342;2023-07-20T01:31:24;18.70;99.90
21744;DHT22;11034;48.556;9.342;2023-07-20T01:33:55;18.60;99.90
21744;DHT22;11034;48.556;9.342;2023-07-20T01:36:26;18.60;99.90
21744;DHT22;11034;48.556;9.342;2023-07-20T01:38:54;18.60;99.90
21744;DHT22;11034;48.556;9.342;2023-07-20T01:41:23;18.50;99.90
21744;DHT22;11034;48.556;9.342;2023-07-20T01:43:51;18.50;99.90
21744;DHT22;11034;48.556;9.342;2023-07-20T01:46:20;18.50;99.90
21744;DHT22;11034;48.556;9.342;2023-07-20T01:48:50;18.50;99.90
21744;DHT22;11034;48.556;9.342;2023-07-20T01:51:18;18.60;99.90
21744;DHT22;11034;48.556;9.342;2023-07-20T01:53:46;18.50;99.90
21744;DHT22;11034;48.556;9.342;2023-07-20T01:56:14;18.50;99.90
21744;DHT22;11034;48.556;9.342;2023-07-20T01:58:42;18.40;99.90
21744;DHT22;11034;48.556;9.342;2023-07-20T02:01:10;18.40;99.90
21744;DHT22;11034;48.556;9.342;2023-07-20T02:03:38;18.40;99.90
21744;DHT22;11034;48.556;9.342;2023-07-20T02:06:08;18.40;99.90
21744;DHT22;11034;48.556;9.342;2023-07-20T02:08:36;18.40;99.90
21744;DHT22;11034;48.556;9.342;2023-07-20T02:11:04;18.40;99.90
21744;DHT22;11034;48.556;9.342;2023-07-20T02:13:32;18.30;99.90
21744;DHT22;11034;48.556;9.342;2023-07-20T02:16:00;18.30;99.90
21744;DHT22;11034;48.556;9.342;2023-07-20T02:18:28;18.30;99.90
21744;DHT22;11034;48.556;9.342;2023-07-20T02:20:56;18.20;99.90
21744;DHT22;11034;48.556;9.342;2023-07-20T02:23:25;18.10;99.90
21744;DHT22;11034;48.556;9.342;2023-07-20T02:25:53;18.10;99.90
21744;DHT22;11034;48.556;9.342;2023-07-20T02:28:21;18.10;99.90
21744;DHT22;11034;48.556;9.342;2023-07-20T02:30:50;18.10;99.90
21744;DHT22;11034;48.556;9.342;2023-07-20T02:33:18;18.00;99.90
21744;DHT22;11034;48.556;9.342;2023-07-20T02:35:46;18.00;99.90
21744;DHT22;11034;48.556;9.342;2023-07-20T02:38:14;17.90;99.90
21744;DHT22;11034;48.556;9.342;2023-07-20T02:40:44;17.90;99.90
21744;DHT22;11034;48.556;9.342;2023-07-20T02:43:12;17.80;99.90
21744;DHT22;11034;48.556;9.342;2023-07-20T02:45:40;17.80;99.90
21744;DHT22;11034;48.556;9.342;2023-07-20T02:48:09;17.70;99.90
21744;DHT22;11034;48.556;9.342;2023-07-20T02:50:37;17.70;99.90
21744;DHT22;11034;48.556;9.342;2023-07-20T02:53:05;17.60;99.90
21744;DHT22;11034;48.556;9.342;2023-07-20T02:55:33;17.70;99.90
21744;DHT22;11034;48.556;9.342;2023-07-20T02:58:02;17.60;99.90
21744;DHT22;11034;48.556;9.342;2023-07-20T03:00:30;17.60;99.90
21744;DHT22;11034;48.556;9.342;2023-07-20T03:02:59;17.50;99.90
21744;DHT22;11034;48.556;9.342;2023-07-20T03:05:27;17.50;99.90
21744;DHT22;11034;48.556;9.342;2023-07-20T03:07:55;17.50;99.90
21744;DHT22;11034;48.556;9.342;2023-07-20T03:10:23;17.50;99.90
21744;DHT22;11034;48.556;9.342;2023-07-20T03:12:51;17.50;99.90
21744;DHT22;11034;48.556;9.342;2023-07-20T03:15:20;17.40;99.90
21744;DHT22;11034;48.556;9.342;2023-07-20T03:17:49;17.30;99.90
21744;DHT22;11034;48.556;9.342;2023-07-20T03:20:18;17.20;99.90
21744;DHT22;11034;48.556;9.342;2023-07-20T03:22:46;17.20;99.90
21744;DHT22;11034;48.556;9.342;2023-07-20T03:25:14;17.00;99.90
21744;DHT22;11034;48.556;9.342;2023-07-20T03:27:42;17.00;99.90
21744;DHT22;11034;48.556;9.342;2023-07-20T03:30:11;16.90;99.90
21744;DHT22;11034;48.556;9.342;2023-07-20T03:32:41;16.90;99.90
21744;DHT22;11034;48.556;9.342;2023-07-20T03:35:09;16.80;99.90
21744;DHT22;11034;48.556;9.342;2023-07-20T03:37:37;16.70;99.90
21744;DHT22;11034;48.556;9.342;2023-07-20T03:40:07;16.60;99.90
21744;DHT22;11034;48.556;9.342;2023-07-20T03:42:37;16.50;99.90
21744;DHT22;11034;48.556;9.342;2023-07-20T03:45:06;16.40;99.90
21744;DHT22;11034;48.556;9.342;2023-07-20T03:47:34;16.30;99.90
21744;DHT22;11034;48.556;9.342;2023-07-20T03:50:05;16.20;99.90
21744;DHT22;11034;48.556;9.342;2023-07-20T03:52:33;16.20;99.90
21744;DHT22;11034;48.556;9.342;2023-07-20T03:55:01;16.20;99.90
21744;DHT22;11034;48.556;9.342;2023-07-20T03:57:29;16.10;99.90
21744;DHT22;11034;48.556;9.342;2023-07-20T04:00:00;16.10;99.90
21744;DHT22;11034;48.556;9.342;2023-07-20T04:02:28;16.10;99.90
21744;DHT22;11034;48.556;9.342;2023-07-20T04:04:56;16.10;99.90
21744;DHT22;11034;48.556;9.342;2023-07-20T04:07:25;16.20;99.90
21744;DHT22;11034;48.556;9.342;2023-07-20T04:09:54;16.30;99.90
21744;DHT22;11034;48.556;9.342;2023-07-20T04:12:22;16.40;99.90
21744;DHT22;11034;48.556;9.342;2023-07-20T04:14:50;16.50;99.90
21744;DHT22;11034;48.556;9.342;2023-07-20T04:17:18;16.50;99.90
21744;DHT22;11034;48.556;9.342;2023-07-20T04:19:46;16.60;99.90
21744;DHT22;11034;48.556;9.342;2023-07-20T04:22:14;16.60;99.90
21744;DHT22;11034;48.556;9.342;2023-07-20T04:24:44;16.60;99.90
21744;DHT22;11034;48.556;9.342;2023-07-20T04:27:12;16.70;99.90
21744;DHT22;11034;48.556;9.342;2023-07-20T04:29:40;16.70;99.90
21744;DHT22;11034;48.556;9.342;2023-07-20T04:32:11;16.80;99.90
21744;DHT22;11034;48.556;9.342;2023-07-20T04:34:40;16.90;99.90
21744;DHT22;11034;48.556;9.342;2023-07-20T04:37:08;17.10;99.90
21744;DHT22;11034;48.556;9.342;2023-07-20T04:39:36;17.50;99.90
21744;DHT22;11034;48.556;9.342;2023-07-20T04:42:06;17.70;99.90
21744;DHT22;11034;48.556;9.342;2023-07-20T04:44:34;17.80;99.90
21744;DHT22;11034;48.556;9.342;2023-07-20T04:47:02;17.70;99.90
21744;DHT22;11034;48.556;9.342;2023-07-20T04:49:30;17.60;99.90
21744;DHT22;11034;48.556;9.342;2023-07-20T04:51:58;17.50;99.90
21744;DHT22;11034;48.556;9.342;2023-07-20T04:54:26;17.40;99.90
21744;DHT22;11034;48.556;9.342;2023-07-20T04:56:54;17.50;99.90
21744;DHT22;11034;48.556;9.342;2023-07-20T04:59:24;17.60;99.90
21744;DHT22;11034;48.556;9.342;2023-07-20T05:01:52;17.60;99.90
21744;DHT22;11034;48.556;9.342;2023-07-20T05:04:20;18.20;99.90
21744;DHT22;11034;48.556;9.342;2023-07-20T05:06:48;19.40;99.90
21744;DHT22;11034;48.556;9.342;2023-07-20T05:09:16;20.20;99.90
21744;DHT22;11034;48.556;9.342;2023-07-20T05:11:44;20.10;99.90
21744;DHT22;11034;48.556;9.342;2023-07-20T05:14:14;19.70;99.90
21744;DHT22;11034;48.556;9.342;2023-07-20T05:16:44;20.20;99.90
21744;DHT22;11034;48.556;9.342;2023-07-20T05:19:12;20.70;99.90
21744;DHT22;11034;48.556;9.342;2023-07-20T05:21:40;21.40;99.90
21744;DHT22;11034;48.556;9.342;2023-07-20T05:24:08;22.20;99.90
21744;DHT22;11034;48.556;9.342;2023-07-20T05:26:36;22.90;99.90
21744;DHT22;11034;48.556;9.342;2023-07-20T05:29:04;23.50;99.90
21744;DHT22;11034;48.556;9.342;2023-07-20T05:31:32;23.10;99.90
21744;DHT22;11034;48.556;9.342;2023-07-20T05:34:02;23.10;99.90
21744;DHT22;11034;48.556;9.342;2023-07-20T05:36:30;23.60;99.90
21744;DHT22;11034;48.556;9.342;2023-07-20T05:38:58;24.30;99.90
21744;DHT22;11034;48.556;9.342;2023-07-20T05:41:26;24.10;99.90
21744;DHT22;11034;48.556;9.342;2023-07-20T05:43:54;23.20;99.90
21744;DHT22;11034;48.556;9.342;2023-07-20T05:46:22;22.60;99.90
21744;DHT22;11034;48.556;9.342;2023-07-20T05:48:53;22.60;99.90
21744;DHT22;11034;48.556;9.342;2023-07-20T05:51:23;22.40;99.90
21744;DHT22;11034;48.556;9.342;2023-07-20T05:53:51;21.90;99.90
21744;DHT22;11034;48.556;9.342;2023-07-20T05:56:19;21.80;99.90
21744;DHT22;11034;48.556;9.342;2023-07-20T05:58:47;21.60;99.90
21744;DHT22;11034;48.556;9.342;2023-07-20T06:01:15;21.50;99.90
21744;DHT22;11034;48.556;9.342;2023-07-20T06:03:45;21.30;99.90
21744;DHT22;11034;48.556;9.342;2023-07-20T06:06:13;21.30;99.90
21744;DHT22;11034;48.556;9.342;2023-07-20T06:08:43;21.50;99.90
21744;DHT22;11034;48.556;9.342;2023-07-20T06:11:11;21.50;99.90
21744;DHT22;11034;48.556;9.342;2023-07-20T06:13:39;21.30;99.90
21744;DHT22;11034;48.556;9.342;2023-07-20T06:16:07;21.30;99.90
21744;DHT22;11034;48.556;9.342;2023-07-20T06:18:35;21.40;99.90
21744;DHT22;11034;48.556;9.342;2023-07-20T06:21:03;21.00;99.90
21744;DHT22;11034;48.556;9.342;2023-07-20T06:23:31;20.90;99.90
21744;DHT22;11034;48.556;9.342;2023-07-20T06:26:01;21.20;99.90
21744;DHT22;11034;48.556;9.342;2023-07-20T06:28:29;21.20;99.90
21744;DHT22;11034;48.556;9.342;2023-07-20T06:31:00;21.10;99.90
21744;DHT22;11034;48.556;9.342;2023-07-20T06:33:29;21.30;99.90
21744;DHT22;11034;48.556;9.342;2023-07-20T06:35:57;21.60;99.90
21744;DHT22;11034;48.556;9.342;2023-07-20T06:38:25;21.30;99.90
21744;DHT22;11034;48.556;9.342;2023-07-20T06:40:56;21.50;99.90
21744;DHT22;11034;48.556;9.342;2023-07-20T06:43:46;21.60;99.90
21744;DHT22;11034;48.556;9.342;2023-07-20T06:46:15;21.90;99.90
21744;DHT22;11034;48.556;9.342;2023-07-20T06:48:43;22.20;99.90
21744;DHT22;11034;48.556;9.342;2023-07-20T06:51:14;22.10;99.90
21744;DHT22;11034;48.556;9.342;2023-07-20T06:53:43;22.00;99.90
21744;DHT22;11034;48.556;9.342;2023-07-20T06:56:11;21.80;99.90
21744;DHT22;11034;48.556;9.342;2023-07-20T06:58:40;21.80;99.90
21744;DHT22;11034;48.556;9.342;2023-07-20T07:01:09;22.10;99.90
21744;DHT22;11034;48.556;9.342;2023-07-20T07:03:37;22.50;99.90
21744;DHT22;11034;48.556;9.342;2023-07-20T07:06:05;22.40;99.90
21744;DHT22;11034;48.556;9.342;2023-07-20T07:08:33;22.60;99.90
21744;DHT22;11034;48.556;9.342;2023-07-20T07:11:02;22.50;99.90
21744;DHT22;11034;48.556;9.342;2023-07-20T07:13:30;22.10;99.90
21744;DHT22;11034;48.556;9.342;2023-07-20T07:15:58;22.10;99.90
21744;DHT22;11034;48.556;9.342;2023-07-20T07:18:27;22.60;99.90
21744;DHT22;11034;48.556;9.342;2023-07-20T07:20:57;22.80;99.90
21744;DHT22;11034;48.556;9.342;2023-07-20T07:23:29;23.00;99.90
21744;DHT22;11034;48.556;9.342;2023-07-20T07:25:57;23.40;99.90
21744;DHT22;11034;48.556;9.342;2023-07-20T07:28:25;23.50;99.90
21744;DHT22;11034;48.556;9.342;2023-07-20T07:30:55;23.70;99.90
21744;DHT22;11034;48.556;9.342;2023-07-20T07:33:24;23.90;99.90
21744;DHT22;11034;48.556;9.342;2023-07-20T07:35:53;24.20;99.90
21744;DHT22;11034;48.556;9.342;2023-07-20T07:38:21;24.70;99.90
21744;DHT22;11034;48.556;9.342;2023-07-20T07:41:09;25.60;99.90
21744;DHT22;11034;48.556;9.342;2023-07-20T07:43:37;26.00;99.90
21744;DHT22;11034;48.556;9.342;2023-07-20T07:46:06;26.00;99.90
21744;DHT22;11034;48.556;9.342;2023-07-20T07:48:34;26.20;99.90
21744;DHT22;11034;48.556;9.342;2023-07-20T07:51:04;26.70;99.90
21744;DHT22;11034;48.556;9.342;2023-07-20T07:53:32;26.80;99.90
21744;DHT22;11034;48.556;9.342;2023-07-20T07:56:02;26.90;99.90
21744;DHT22;11034;48.556;9.342;2023-07-20T07:58:31;26.90;99.90
21744;DHT22;11034;48.556;9.342;2023-07-20T08:00:59;26.80;99.90
21744;DHT22;11034;48.556;9.342;2023-07-20T08:03:27;26.90;99.90
21744;DHT22;11034;48.556;9.342;2023-07-20T08:05:57;26.80;99.90
21744;DHT22;11034;48.556;9.342;2023-07-20T08:08:27;27.20;99.90
21744;DHT22;11034;48.556;9.342;2023-07-20T08:10:55;26.80;99.90
21744;DHT22;11034;48.556;9.342;2023-07-20T08:13:23;26.80;99.90
21744;DHT22;11034;48.556;9.342;2023-07-20T08:15:52;27.00;99.90
21744;DHT22;11034;48.556;9.342;2023-07-20T08:18:21;27.30;99.90
21744;DHT22;11034;48.556;9.342;2023-07-20T08:20:49;27.70;99.90
21744;DHT22;11034;48.556;9.342;2023-07-20T08:23:19;27.80;99.50
21744;DHT22;11034;48.556;9.342;2023-07-20T08:25:49;27.10;99.10
21744;DHT22;11034;48.556;9.342;2023-07-20T08:28:17;26.80;99.70
21744;DHT22;11034;48.556;9.342;2023-07-20T08:30:46;26.80;99.90
21744;DHT22;11034;48.556;9.342;2023-07-20T08:33:15;26.50;99.90
21744;DHT22;11034;48.556;9.342;2023-07-20T08:35:46;25.90;99.90
21744;DHT22;11034;48.556;9.342;2023-07-20T08:38:14;25.90;99.90
21744;DHT22;11034;48.556;9.342;2023-07-20T08:40:44;25.90;99.90
21744;DHT22;11034;48.556;9.342;2023-07-20T08:43:14;26.20;99.90
21744;DHT22;11034;48.556;9.342;2023-07-20T08:45:45;25.60;99.90
21744;DHT22;11034;48.556;9.342;2023-07-20T08:48:14;25.50;99.90
21744;DHT22;11034;48.556;9.342;2023-07-20T08:50:44;25.10;99.90
21744;DHT22;11034;48.556;9.342;2023-07-20T08:53:13;24.80;99.90
21744;DHT22;11034;48.556;9.342;2023-07-20T08:55:43;24.60;99.90
21744;DHT22;11034;48.556;9.342;2023-07-20T08:58:14;24.00;99.90
21744;DHT22;11034;48.556;9.342;2023-07-20T09:00:43;24.00;99.90
21744;DHT22;11034;48.556;9.342;2023-07-20T09:03:14;24.00;99.90
21744;DHT22;11034;48.556;9.342;2023-07-20T09:05:43;24.10;99.90
21744;DHT22;11034;48.556;9.342;2023-07-20T09:08:12;23.90;99.90
21744;DHT22;11034;48.556;9.342;2023-07-20T09:10:40;23.80;99.90
21744;DHT22;11034;48.556;9.342;2023-07-20T09:13:08;23.50;99.90
21744;DHT22;11034;48.556;9.342;2023-07-20T09:15:38;23.80;99.90
21744;DHT22;11034;48.556;9.342;2023-07-20T09:18:06;24.10;99.90
21744;DHT22;11034;48.556;9.342;2023-07-20T09:20:36;23.90;99.90
21744;DHT22;11034;48.556;9.342;2023-07-20T09:23:04;24.00;99.90
21744;DHT22;11034;48.556;9.342;2023-07-20T09:25:34;24.40;99.90
21744;DHT22;11034;48.556;9.342;2023-07-20T09:28:04;24.20;99.90
21744;DHT22;11034;48.556;9.342;2023-07-20T09:30:32;24.20;99.90
21744;DHT22;11034;48.556;9.342;2023-07-20T09:33:02;23.90;99.90
21744;DHT22;11034;48.556;9.342;2023-07-20T09:35:30;23.90;99.90
21744;DHT22;11034;48.556;9.342;2023-07-20T09:38:09;23.80;99.90
21744;DHT22;11034;48.556;9.342;2023-07-20T09:40:40;24.00;99.90
21744;DHT22;11034;48.556;9.342;2023-07-20T09:43:12;24.20;99.90
21744;DHT22;11034;48.556;9.342;2023-07-20T09:45:43;24.20;99.90
21744;DHT22;11034;48.556;9.342;2023-07-20T09:48:15;24.50;99.90
21744;DHT22;11034;48.556;9.342;2023-07-20T09:50:49;24.80;99.90
21744;DHT22;11034;48.556;9.342;2023-07-20T09:53:19;25.10;99.90
21744;DHT22;11034;48.556;9.342;2023-07-20T09:55:48;25.00;99.80
21744;DHT22;11034;48.556;9.342;2023-07-20T09:58:17;24.90;99.20
21744;DHT22;11034;48.556;9.342;2023-07-20T10:00:46;24.80;99.60
21744;DHT22;11034;48.556;9.342;2023-07-20T10:03:21;24.90;99.90
21744;DHT22;11034;48.556;9.342;2023-07-20T10:05:54;24.90;99.90
21744;DHT22;11034;48.556;9.342;2023-07-20T10:08:24;24.80;99.90
21744;DHT22;11034;48.556;9.342;2023-07-20T10:10:57;24.60;99.40
21744;DHT22;11034;48.556;9.342;2023-07-20T10:13:27;24.20;99.90
21744;DHT22;11034;48.556;9.342;2023-07-20T10:16:01;24.30;99.60
21744;DHT22;11034;48.556;9.342;2023-07-20T10:18:38;24.30;99.60
21744;DHT22;11034;48.556;9.342;2023-07-20T10:21:10;24.30;99.90
21744;DHT22;11034;48.556;9.342;2023-07-20T10:23:41;24.30;99.90
21744;DHT22;11034;48.556;9.342;2023-07-20T10:26:09;24.40;99.90
21744;DHT22;11034;48.556;9.342;2023-07-20T10:28:38;24.20;99.20
21744;DHT22;11034;48.556;9.342;2023-07-20T10:31:08;24.20;99.20
21744;DHT22;11034;48.556;9.342;2023-07-20T10:33:38;24.50;99.70
21744;DHT22;11034;48.556;9.342;2023-07-20T10:36:06;24.60;98.70
21744;DHT22;11034;48.556;9.342;2023-07-20T10:38:41;24.80;99.40
21744;DHT22;11034;48.556;9.342;2023-07-20T10:41:16;24.90;98.50
21744;DHT22;11034;48.556;9.342;2023-07-20T10:43:47;24.90;98.00
21744;DHT22;11034;48.556;9.342;2023-07-20T10:46:33;25.10;99.80
21744;DHT22;11034;48.556;9.342;2023-07-20T10:49:04;25.20;99.40
21744;DHT22;11034;48.556;9.342;2023-07-20T10:51:39;25.10;98.60
21744;DHT22;11034;48.556;9.342;2023-07-20T10:54:10;25.10;98.50
21744;DHT22;11034;48.556;9.342;2023-07-20T10:56:58;25.20;98.20
21744;DHT22;11034;48.556;9.342;2023-07-20T10:59:47;25.20;98.10
21744;DHT22;11034;48.556;9.342;2023-07-20T11:02:18;25.20;97.30
21744;DHT22;11034;48.556;9.342;2023-07-20T11:04:48;25.30;97.00
21744;DHT22;11034;48.556;9.342;2023-07-20T11:07:21;25.70;97.10
21744;DHT22;11034;48.556;9.342;2023-07-20T11:10:13;25.70;96.80
21744;DHT22;11034;48.556;9.342;2023-07-20T11:15:47;24.80;95.50
21744;DHT22;11034;48.556;9.342;2023-07-20T11:18:16;24.90;95.20
21744;DHT22;11034;48.556;9.342;2023-07-20T11:20:50;25.10;95.50
21744;DHT22;11034;48.556;9.342;2023-07-20T11:23:19;25.30;95.80
21744;DHT22;11034;48.556;9.342;2023-07-20T11:25:49;25.50;94.90
21744;DHT22;11034;48.556;9.342;2023-07-20T11:28:23;25.50;95.90
21744;DHT22;11034;48.556;9.342;2023-07-20T11:30:52;25.00;94.00
21744;DHT22;11034;48.556;9.342;2023-07-20T11:33:21;24.90;94.30
21744;DHT22;11034;48.556;9.342;2023-07-20T11:35:51;24.80;94.90
21744;DHT22;11034;48.556;9.342;2023-07-20T11:38:19;24.90;94.10
21744;DHT22;11034;48.556;9.342;2023-07-20T11:40:47;24.90;95.00
21744;DHT22;11034;48.556;9.342;2023-07-20T11:43:16;24.90;94.30
21744;DHT22;11034;48.556;9.342;2023-07-20T11:45:46;24.90;94.60
21744;DHT22;11034;48.556;9.342;2023-07-20T11:48:15;24.90;95.10
21744;DHT22;11034;48.556;9.342;2023-07-20T11:50:43;25.00;94.00
21744;DHT22;11034;48.556;9.342;2023-07-20T11:53:13;25.10;94.00
21744;DHT22;11034;48.556;9.342;2023-07-20T11:55:42;25.10;94.50
21744;DHT22;11034;48.556;9.342;2023-07-20T11:58:10;24.90;94.50
21744;DHT22;11034;48.556;9.342;2023-07-20T12:00:38;25.00;94.30
21744;DHT22;11034;48.556;9.342;2023-07-20T12:03:07;25.20;93.50
21744;DHT22;11034;48.556;9.342;2023-07-20T12:05:37;25.20;93.70
21744;DHT22;11034;48.556;9.342;2023-07-20T12:08:27;25.10;93.40
21744;DHT22;11034;48.556;9.342;2023-07-20T12:10:55;25.10;92.90
21744;DHT22;11034;48.556;9.342;2023-07-20T12:13:23;25.40;93.00
21744;DHT22;11034;48.556;9.342;2023-07-20T12:15:53;25.40;93.10
21744;DHT22;11034;48.556;9.342;2023-07-20T12:18:23;25.30;93.20
21744;DHT22;11034;48.556;9.342;2023-07-20T12:20:58;25.40;92.60
21744;DHT22;11034;48.556;9.342;2023-07-20T12:23:35;25.30;92.70
21744;DHT22;11034;48.556;9.342;2023-07-20T12:26:06;25.40;93.10
21744;DHT22;11034;48.556;9.342;2023-07-20T12:28:38;25.50;93.10
21744;DHT22;11034;48.556;9.342;2023-07-20T12:31:08;25.60;93.40
21744;DHT22;11034;48.556;9.342;2023-07-20T12:33:36;25.70;92.90
21744;DHT22;11034;48.556;9.342;2023-07-20T12:36:05;25.80;92.30
21744;DHT22;11034;48.556;9.342;2023-07-20T12:38:35;25.70;92.30
21744;DHT22;11034;48.556;9.342;2023-07-20T12:41:03;25.80;91.90
21744;DHT22;11034;48.556;9.342;2023-07-20T12:43:31;25.90;92.20
21744;DHT22;11034;48.556;9.342;2023-07-20T12:46:00;25.90;92.10
21744;DHT22;11034;48.556;9.342;2023-07-20T12:48:28;26.10;91.80
21744;DHT22;11034;48.556;9.342;2023-07-20T12:50:56;26.20;91.80
21744;DHT22;11034;48.556;9.342;2023-07-20T12:53:25;26.20;92.10
21744;DHT22;11034;48.556;9.342;2023-07-20T12:55:55;26.10;91.30
21744;DHT22;11034;48.556;9.342;2023-07-20T12:58:24;26.10;91.70
21744;DHT22;11034;48.556;9.342;2023-07-20T13:00:52;26.00;92.10
21744;DHT22;11034;48.556;9.342;2023-07-20T13:03:21;26.00;92.10
21744;DHT22;11034;48.556;9.342;2023-07-20T13:05:52;26.10;91.50
21744;DHT22;11034;48.556;9.342;2023-07-20T13:08:23;26.00;92.10
21744;DHT22;11034;48.556;9.342;2023-07-20T13:10:52;26.20;91.30
21744;DHT22;11034;48.556;9.342;2023-07-20T13:13:22;26.40;91.00
21744;DHT22;11034;48.556;9.342;2023-07-20T13:15:50;26.50;91.60
21744;DHT22;11034;48.556;9.342;2023-07-20T13:18:18;26.40;91.00
21744;DHT22;11034;48.556;9.342;2023-07-20T13:20:46;26.50;91.50
21744;DHT22;11034;48.556;9.342;2023-07-20T13:23:14;26.40;91.60
21744;DHT22;11034;48.556;9.342;2023-07-20T13:25:42;26.20;91.10
21744;DHT22;11034;48.556;9.342;2023-07-20T13:28:10;26.10;91.40
21744;DHT22;11034;48.556;9.342;2023-07-20T13:30:40;25.80;92.10
21744;DHT22;11034;48.556;9.342;2023-07-20T13:33:09;25.50;91.60
21744;DHT22;11034;48.556;9.342;2023-07-20T13:35:43;25.80;92.10
21744;DHT22;11034;48.556;9.342;2023-07-20T13:38:15;26.10;92.10
21744;DHT22;11034;48.556;9.342;2023-07-20T13:40:44;26.40;91.30
21744;DHT22;11034;48.556;9.342;2023-07-20T13:43:12;26.40;91.50
21744;DHT22;11034;48.556;9.342;2023-07-20T13:45:41;26.30;90.70
21744;DHT22;11034;48.556;9.342;2023-07-20T13:48:10;26.50;91.60
21744;DHT22;11034;48.556;9.342;2023-07-20T13:50:38;26.80;90.60
21744;DHT22;11034;48.556;9.342;2023-07-20T13:53:25;26.90;90.00
21744;DHT22;11034;48.556;9.342;2023-07-20T13:55:57;26.70;90.80
21744;DHT22;11034;48.556;9.342;2023-07-20T13:58:28;26.80;91.70
21744;DHT22;11034;48.556;9.342;2023-07-20T14:00:59;27.00;90.60
21744;DHT22;11034;48.556;9.342;2023-07-20T14:03:27;26.80;89.00
21744;DHT22;11034;48.556;9.342;2023-07-20T14:05:55;26.60;90.10
21744;DHT22;11034;48.556;9.342;2023-07-20T14:08:26;26.40;90.30
21744;DHT22;11034;48.556;9.342;2023-07-20T14:10:57;26.10;90.50
21744;DHT22;11034;48.556;9.342;2023-07-20T14:13:28;25.90;90.50
21744;DHT22;11034;48.556;9.342;2023-07-20T14:16:14;26.10;90.60
21744;DHT22;11034;48.556;9.342;2023-07-20T14:18:42;25.90;90.30
21744;DHT22;11034;48.556;9.342;2023-07-20T14:21:19;26.00;90.90
21744;DHT22;11034;48.556;9.342;2023-07-20T14:23:50;26.30;90.70
21744;DHT22;11034;48.556;9.342;2023-07-20T14:26:20;26.20;90.90
21744;DHT22;11034;48.556;9.342;2023-07-20T14:28:49;26.30;90.70
21744;DHT22;11034;48.556;9.342;2023-07-20T14:31:18;26.50;90.20
21744;DHT22;11034;48.556;9.342;2023-07-20T14:33:47;26.40;89.50
21744;DHT22;11034;48.556;9.342;2023-07-20T14:36:16;26.40;89.90
21744;DHT22;11034;48.556;9.342;2023-07-20T14:38:45;26.40;90.80
21744;DHT22;11034;48.556;9.342;2023-07-20T14:41:13;26.00;90.70
21744;DHT22;11034;48.556;9.342;2023-07-20T14:43:41;25.70;90.30
21744;DHT22;11034;48.556;9.342;2023-07-20T14:46:09;25.60;90.40
21744;DHT22;11034;48.556;9.342;2023-07-20T14:48:39;25.70;90.50
21744;DHT22;11034;48.556;9.342;2023-07-20T14:51:07;25.50;91.40
21744;DHT22;11034;48.556;9.342;2023-07-20T14:53:35;25.40;91.80
21744;DHT22;11034;48.556;9.342;2023-07-20T14:56:03;25.20;91.10
21744;DHT22;11034;48.556;9.342;2023-07-20T14:58:31;25.10;91.30
21744;DHT22;11034;48.556;9.342;2023-07-20T15:01:02;25.10;91.20
21744;DHT22;11034;48.556;9.342;2023-07-20T15:03:31;25.30;91.50
21744;DHT22;11034;48.556;9.342;2023-07-20T15:06:01;25.30;90.90
21744;DHT22;11034;48.556;9.342;2023-07-20T15:08:30;25.70;91.00
21744;DHT22;11034;48.556;9.342;2023-07-20T15:10:58;25.80;90.70
21744;DHT22;11034;48.556;9.342;2023-07-20T15:13:26;25.90;90.70
21744;DHT22;11034;48.556;9.342;2023-07-20T15:15:54;26.00;90.10
21744;DHT22;11034;48.556;9.342;2023-07-20T15:18:22;25.80;90.70
21744;DHT22;11034;48.556;9.342;2023-07-20T15:21:11;25.80;90.70
21744;DHT22;11034;48.556;9.342;2023-07-20T15:23:39;25.40;91.50
21744;DHT22;11034;48.556;9.342;2023-07-20T15:26:07;25.60;91.40
21744;DHT22;11034;48.556;9.342;2023-07-20T15:28:38;25.60;91.80
21744;DHT22;11034;48.556;9.342;2023-07-20T15:31:06;25.70;92.00
21744;DHT22;11034;48.556;9.342;2023-07-20T15:33:34;25.70;91.30
21744;DHT22;11034;48.556;9.342;2023-07-20T15:36:02;25.60;91.40
21744;DHT22;11034;48.556;9.342;2023-07-20T15:38:33;25.40;91.30
21744;DHT22;11034;48.556;9.342;2023-07-20T15:41:01;25.20;90.90
21744;DHT22;11034;48.556;9.342;2023-07-20T15:43:29;25.10;91.40
21744;DHT22;11034;48.556;9.342;2023-07-20T15:46:02;25.00;91.40
21744;DHT22;11034;48.556;9.342;2023-07-20T15:48:34;25.20;91.90